Time;durP1;ratioP1;P1;durP2;ratioP2;P2;SDS_P1;SDS_P2;PMS_P1;PMS_P2;Temp;Humidity;BMP_temperature;BMP_pressure;BME280_temperature;BME280_humidity;BME280_pressure;Samples;Min_cycle;Max_cycle;Signal;HPM_P1;HPM_P2
2023/07/04 00:00:58;;;;;;;4.38;3.22;;;;;;;;;;5067546;28;20090;-56
2023/07/04 00:03:24;;;;;;;3.72;3.15;;;;;;;;;;5064236;28;20578;-56
2023/07/04 00:05:49;;;;;;;5.47;3.38;;;;;;;;;;5048798;28;20040;-56
2023/07/04 00:08:14;;;;;;;7.05;3.75;;;;;;;;;;5066907;28;20036;-56
2023/07/04 00:10:41;;;;;;;6.17;3.57;;;;;;;;;;5067229;28;20066;-56
2023/07/04 00:13:07;;;;;;;6.40;3.65;;;;;;;;;;5052611;28;20818;-56
2023/07/04 00:15:32;;;;;;;5.65;3.50;;;;;;;;;;5059138;28;20036;-56
2023/07/04 00:17:58;;;;;;;5.78;3.50;;;;;;;;;;5048767;28;20474;-57
2023/07/04 00:20:24;;;;;;;6.60;3.70;;;;;;;;;;5067284;28;20032;-56
2023/07/04 00:22:49;;;;;;;4.95;3.60;;;;;;;;;;5048261;28;20343;-56
2023/07/04 00:25:14;;;;;;;4.73;3.30;;;;;;;;;;5053763;28;20037;-56
2023/07/04 00:27:40;;;;;;;3.80;3.03;;;;;;;;;;5057119;28;20071;-56
2023/07/04 00:30:06;;;;;;;6.15;3.65;;;;;;;;;;5066289;28;20048;-56
2023/07/04 00:32:31;;;;;;;4.38;3.03;;;;;;;;;;5066763;28;20408;-56
2023/07/04 00:34:56;;;;;;;5.13;3.15;;;;;;;;;;5060786;28;20045;-56
2023/07/04 00:37:22;;;;;;;4.30;3.20;;;;;;;;;;5066652;28;20040;-56
2023/07/04 00:39:48;;;;;;;4.80;3.10;;;;;;;;;;5066767;28;20052;-60
2023/07/04 00:42:13;;;;;;;5.43;3.22;;;;;;;;;;5066316;28;20532;-56
2023/07/04 00:44:44;;;;;;;4.73;3.23;;;;;;;;;;5066766;28;20036;-56
2023/07/04 00:47:11;;;;;;;4.53;3.30;;;;;;;;;;5053350;28;20298;-57
2023/07/04 00:49:45;;;;;;;3.67;2.95;;;;;;;;;;5056299;28;20135;-55
2023/07/04 00:52:14;;;;;;;4.63;3.10;;;;;;;;;;5064303;28;20429;-56
2023/07/04 00:54:43;;;;;;;4.90;3.30;;;;;;;;;;5058087;28;20060;-56
2023/07/04 00:57:09;;;;;;;3.97;3.03;;;;;;;;;;5047642;28;20036;-55
2023/07/04 00:59:43;;;;;;;5.43;3.28;;;;;;;;;;5047540;28;20047;-56
2023/07/04 01:02:08;;;;;;;4.65;3.50;;;;;;;;;;5059107;28;20477;-56
2023/07/04 01:04:33;;;;;;;4.60;3.10;;;;;;;;;;5047178;28;20570;-57
2023/07/04 01:07:05;;;;;;;3.77;3.13;;;;;;;;;;5060064;28;20032;-55
2023/07/04 01:09:31;;;;;;;6.05;3.67;;;;;;;;;;5047671;28;20290;-56
2023/07/04 01:11:56;;;;;;;3.88;3.20;;;;;;;;;;5059460;28;20443;-56
2023/07/04 01:14:22;;;;;;;4.57;3.50;;;;;;;;;;5035612;28;20118;-56
2023/07/04 01:16:48;;;;;;;3.63;3.10;;;;;;;;;;5047808;28;20275;-56
2023/07/04 01:19:13;;;;;;;6.03;3.92;;;;;;;;;;5065440;28;20066;-56
2023/07/04 01:21:38;;;;;;;9.52;3.78;;;;;;;;;;5047705;28;20485;-57
2023/07/04 01:24:04;;;;;;;6.60;4.15;;;;;;;;;;5047373;28;20451;-56
2023/07/04 01:26:36;;;;;;;7.20;4.17;;;;;;;;;;5045714;28;20036;-56
2023/07/04 01:29:02;;;;;;;7.40;4.30;;;;;;;;;;5027749;28;20759;-57
2023/07/04 01:31:30;;;;;;;7.50;4.25;;;;;;;;;;5064331;28;20169;-56
2023/07/04 01:33:55;;;;;;;6.72;4.28;;;;;;;;;;5058160;28;20543;-56
2023/07/04 01:36:22;;;;;;;7.18;4.13;;;;;;;;;;5061976;28;20036;-56
2023/07/04 01:38:47;;;;;;;6.10;3.97;;;;;;;;;;5060991;28;20067;-56
2023/07/04 01:41:12;;;;;;;6.82;4.38;;;;;;;;;;5065413;28;20150;-56
2023/07/04 01:43:39;;;;;;;6.40;3.97;;;;;;;;;;5050288;28;20421;-55
2023/07/04 01:46:04;;;;;;;4.63;3.75;;;;;;;;;;5045445;28;20052;-56
2023/07/04 01:48:30;;;;;;;4.80;3.95;;;;;;;;;;5045530;28;20079;-56
2023/07/04 01:50:55;;;;;;;6.00;3.78;;;;;;;;;;5059230;28;20047;-56
2023/07/04 01:53:20;;;;;;;5.10;3.50;;;;;;;;;;5061088;28;20041;-57
2023/07/04 01:55:45;;;;;;;4.97;3.80;;;;;;;;;;5064359;28;20283;-56
2023/07/04 01:58:11;;;;;;;5.27;3.80;;;;;;;;;;5029168;28;20037;-55
2023/07/04 02:00:37;;;;;;;6.10;4.00;;;;;;;;;;5060898;28;20395;-56
2023/07/04 02:03:02;;;;;;;6.03;3.85;;;;;;;;;;5056393;28;20675;-56
2023/07/04 02:05:27;;;;;;;6.55;3.83;;;;;;;;;;5052991;28;20021;-56
2023/07/04 02:07:52;;;;;;;4.63;3.40;;;;;;;;;;5044931;28;20060;-56
2023/07/04 02:10:18;;;;;;;6.07;3.80;;;;;;;;;;5045329;28;20278;-56
2023/07/04 02:12:43;;;;;;;6.88;3.88;;;;;;;;;;5044735;28;20029;-56
2023/07/04 02:15:08;;;;;;;5.33;3.97;;;;;;;;;;5044929;28;20570;-56
2023/07/04 02:17:34;;;;;;;5.18;3.63;;;;;;;;;;5039276;28;20334;-55
2023/07/04 02:19:59;;;;;;;5.85;3.47;;;;;;;;;;5055688;28;20127;-55
2023/07/04 02:22:24;;;;;;;4.85;3.58;;;;;;;;;;5053709;28;20079;-56
2023/07/04 02:24:50;;;;;;;5.63;3.63;;;;;;;;;;5044678;28;20065;-56
2023/07/04 02:27:15;;;;;;;5.60;3.42;;;;;;;;;;5061488;28;20029;-55
2023/07/04 02:29:40;;;;;;;5.70;3.50;;;;;;;;;;5063956;28;20508;-56
2023/07/04 02:32:05;;;;;;;5.53;3.80;;;;;;;;;;5061305;28;20318;-55
2023/07/04 02:34:31;;;;;;;6.00;3.60;;;;;;;;;;5064390;28;20127;-56
2023/07/04 02:36:56;;;;;;;6.67;3.33;;;;;;;;;;5062540;28;20041;-57
2023/07/04 02:39:21;;;;;;;4.77;3.73;;;;;;;;;;5064106;28;20797;-56
2023/07/04 02:41:46;;;;;;;5.07;3.90;;;;;;;;;;5052688;28;20827;-56
2023/07/04 02:44:12;;;;;;;5.80;3.50;;;;;;;;;;5043006;28;20315;-56
2023/07/04 02:46:37;;;;;;;8.17;3.77;;;;;;;;;;5052663;28;20298;-55
2023/07/04 02:49:04;;;;;;;5.07;3.57;;;;;;;;;;5043962;28;20282;-55
2023/07/04 02:51:29;;;;;;;4.55;3.35;;;;;;;;;;5050748;28;20282;-56
2023/07/04 02:53:55;;;;;;;5.07;3.93;;;;;;;;;;5046451;28;20125;-56
2023/07/04 02:56:20;;;;;;;5.97;3.70;;;;;;;;;;5058012;28;20341;-56
2023/07/04 02:58:45;;;;;;;4.53;3.37;;;;;;;;;;5045398;28;20283;-56
2023/07/04 03:01:10;;;;;;;5.53;3.60;;;;;;;;;;5061540;28;20279;-56
2023/07/04 03:03:36;;;;;;;5.88;4.18;;;;;;;;;;5048038;28;20294;-55
2023/07/04 03:06:01;;;;;;;5.27;3.70;;;;;;;;;;5056758;28;20056;-56
2023/07/04 03:08:26;;;;;;;5.00;3.90;;;;;;;;;;5044866;28;20286;-55
2023/07/04 03:10:51;;;;;;;7.17;3.87;;;;;;;;;;5063629;28;20033;-56
2023/07/04 03:13:17;;;;;;;6.00;3.50;;;;;;;;;;5063765;28;20281;-56
2023/07/04 03:15:42;;;;;;;4.97;3.50;;;;;;;;;;5047945;28;20132;-60
2023/07/04 03:18:07;;;;;;;5.50;3.50;;;;;;;;;;5045416;28;20411;-56
2023/07/04 03:20:33;;;;;;;4.32;3.55;;;;;;;;;;5052523;28;20033;-56
2023/07/04 03:22:58;;;;;;;6.18;3.90;;;;;;;;;;5064250;28;20045;-55
2023/07/04 03:25:23;;;;;;;5.30;3.70;;;;;;;;;;5064186;28;20064;-56
2023/07/04 03:27:49;;;;;;;6.03;3.78;;;;;;;;;;5047784;28;20041;-56
2023/07/04 03:30:15;;;;;;;5.25;3.38;;;;;;;;;;5043534;28;20060;-55
2023/07/04 03:32:40;;;;;;;5.63;4.00;;;;;;;;;;5057005;28;20063;-56
2023/07/04 03:35:06;;;;;;;7.70;4.40;;;;;;;;;;5042571;28;20576;-56
2023/07/04 03:37:31;;;;;;;6.32;3.70;;;;;;;;;;5043535;28;20037;-55
2023/07/04 03:39:57;;;;;;;6.10;4.68;;;;;;;;;;5043690;28;20083;-55
2023/07/04 03:42:22;;;;;;;6.22;3.90;;;;;;;;;;5034286;28;20028;-55
2023/07/04 03:44:47;;;;;;;6.32;4.00;;;;;;;;;;5062423;28;20029;-56
2023/07/04 03:47:13;;;;;;;5.40;4.07;;;;;;;;;;5058481;28;20061;-56
2023/07/04 03:49:38;;;;;;;6.27;4.10;;;;;;;;;;5057475;28;20032;-56
2023/07/04 03:52:03;;;;;;;5.80;4.03;;;;;;;;;;5062997;28;20293;-56
2023/07/04 03:54:28;;;;;;;7.30;4.28;;;;;;;;;;5057984;28;20314;-56
2023/07/04 03:56:54;;;;;;;7.33;3.83;;;;;;;;;;5043733;28;20489;-56
2023/07/04 03:59:19;;;;;;;5.93;3.77;;;;;;;;;;5050945;28;20463;-56
2023/07/04 04:01:45;;;;;;;5.33;4.17;;;;;;;;;;5059197;28;20434;-56
2023/07/04 04:04:10;;;;;;;5.60;4.13;;;;;;;;;;5060260;28;20393;-58
2023/07/04 04:06:35;;;;;;;5.40;3.75;;;;;;;;;;5058682;28;20070;-57
2023/07/04 04:09:00;;;;;;;5.20;3.90;;;;;;;;;;5059486;28;20108;-56
2023/07/04 04:11:26;;;;;;;5.90;4.40;;;;;;;;;;5061018;28;20053;-55
2023/07/04 04:13:51;;;;;;;5.20;3.97;;;;;;;;;;5057148;28;20369;-57
2023/07/04 04:16:16;;;;;;;8.70;4.10;;;;;;;;;;5060571;28;20291;-54
2023/07/04 04:18:42;;;;;;;6.80;4.15;;;;;;;;;;5057189;28;20374;-56
2023/07/04 04:21:07;;;;;;;7.65;4.47;;;;;;;;;;5057255;28;20033;-56
2023/07/04 04:23:32;;;;;;;5.82;4.35;;;;;;;;;;5066482;28;20508;-56
2023/07/04 04:25:58;;;;;;;8.00;4.25;;;;;;;;;;5061248;28;20039;-56
2023/07/04 04:28:23;;;;;;;6.13;4.87;;;;;;;;;;5062651;28;20444;-56
2023/07/04 04:30:48;;;;;;;5.97;4.57;;;;;;;;;;5058027;28;20025;-55
2023/07/04 04:33:16;;;;;;;8.07;4.70;;;;;;;;;;5064523;28;20279;-57
2023/07/04 04:35:41;;;;;;;8.25;4.82;;;;;;;;;;5062991;28;20279;-57
2023/07/04 04:38:08;;;;;;;8.18;4.88;;;;;;;;;;5038319;28;20105;-56
2023/07/04 04:40:33;;;;;;;7.50;4.95;;;;;;;;;;5057648;28;20089;-56
2023/07/04 04:42:58;;;;;;;10.40;6.00;;;;;;;;;;5066429;28;20024;-55
2023/07/04 04:45:23;;;;;;;7.53;5.73;;;;;;;;;;5066625;28;20135;-57
2023/07/04 04:47:52;;;;;;;9.23;5.27;;;;;;;;;;5056924;28;20276;-57
2023/07/04 04:50:21;;;;;;;8.05;5.15;;;;;;;;;;5047024;28;20259;-56
2023/07/04 04:52:47;;;;;;;8.95;5.40;;;;;;;;;;5046928;28;20046;-56
2023/07/04 04:55:12;;;;;;;8.90;5.47;;;;;;;;;;5046492;28;20045;-56
2023/07/04 04:57:37;;;;;;;8.32;4.82;;;;;;;;;;5048693;28;20020;-56
2023/07/04 05:00:03;;;;;;;8.67;5.10;;;;;;;;;;5049047;28;20021;-57
2023/07/04 05:02:28;;;;;;;8.25;5.15;;;;;;;;;;5048261;28;20813;-57
2023/07/04 05:04:54;;;;;;;10.23;5.40;;;;;;;;;;5065156;28;20009;-57
2023/07/04 05:07:23;;;;;;;7.85;5.30;;;;;;;;;;5048163;28;20017;-56
2023/07/04 05:09:49;;;;;;;8.43;5.20;;;;;;;;;;5060909;28;20041;-57
2023/07/04 05:12:14;;;;;;;8.23;5.10;;;;;;;;;;5053971;28;20060;-56
2023/07/04 05:14:39;;;;;;;11.30;6.90;;;;;;;;;;5064246;28;20047;-56
2023/07/04 05:17:04;;;;;;;12.43;8.77;;;;;;;;;;5063570;28;20282;-56
2023/07/04 05:19:30;;;;;;;8.73;6.80;;;;;;;;;;5062784;28;20344;-56
2023/07/04 05:21:56;;;;;;;9.13;6.10;;;;;;;;;;5063505;28;20496;-55
2023/07/04 05:24:21;;;;;;;10.18;8.05;;;;;;;;;;5063230;28;20111;-55
2023/07/04 05:26:46;;;;;;;11.30;7.13;;;;;;;;;;5057991;28;20186;-55
2023/07/04 05:29:12;;;;;;;11.35;6.90;;;;;;;;;;5065072;28;20286;-54
2023/07/04 05:31:37;;;;;;;9.55;6.55;;;;;;;;;;5055855;28;20147;-54
2023/07/04 05:34:02;;;;;;;9.70;6.07;;;;;;;;;;5041546;28;20044;-56
2023/07/04 05:36:32;;;;;;;8.97;6.20;;;;;;;;;;5027479;28;20044;-55
2023/07/04 05:38:59;;;;;;;10.53;6.17;;;;;;;;;;5045902;28;20276;-55
2023/07/04 05:41:25;;;;;;;9.82;5.88;;;;;;;;;;5044949;28;20094;-54
2023/07/04 05:43:50;;;;;;;11.18;5.57;;;;;;;;;;5065961;28;20129;-55
2023/07/04 05:46:16;;;;;;;8.73;5.55;;;;;;;;;;5064212;28;20589;-55
2023/07/04 05:48:41;;;;;;;8.15;5.60;;;;;;;;;;5058362;28;20041;-56
2023/07/04 05:51:07;;;;;;;9.00;5.53;;;;;;;;;;5049784;28;20128;-55
2023/07/04 05:53:33;;;;;;;9.23;5.00;;;;;;;;;;5045605;28;20049;-54
2023/07/04 05:56:08;;;;;;;7.60;5.05;;;;;;;;;;5059796;28;20438;-54
2023/07/04 05:58:34;;;;;;;10.75;5.70;;;;;;;;;;5048349;28;20033;-57
2023/07/04 06:01:06;;;;;;;11.02;5.88;;;;;;;;;;5040388;28;20043;-56
2023/07/04 06:03:32;;;;;;;14.23;6.50;;;;;;;;;;5064616;28;20029;-57
2023/07/04 06:05:57;;;;;;;9.93;5.83;;;;;;;;;;5060017;28;20044;-55
2023/07/04 06:08:22;;;;;;;10.10;6.37;;;;;;;;;;5047727;28;20447;-55
2023/07/04 06:10:57;;;;;;;10.00;5.73;;;;;;;;;;5064125;28;20635;-56
2023/07/04 06:13:22;;;;;;;9.18;6.07;;;;;;;;;;5045371;28;20280;-56
2023/07/04 06:15:47;;;;;;;8.53;5.53;;;;;;;;;;5048871;28;20090;-56
2023/07/04 06:18:12;;;;;;;9.57;5.40;;;;;;;;;;5046211;28;20791;-58
2023/07/04 06:20:38;;;;;;;6.50;4.73;;;;;;;;;;5061937;28;20282;-57
2023/07/04 06:23:03;;;;;;;9.33;5.20;;;;;;;;;;5037388;28;20287;-57
2023/07/04 06:25:28;;;;;;;7.60;4.80;;;;;;;;;;5044758;28;20128;-56
2023/07/04 06:27:53;;;;;;;11.70;5.10;;;;;;;;;;5044199;28;20290;-53
2023/07/04 06:30:18;;;;;;;7.70;4.97;;;;;;;;;;5047652;28;20368;-53
2023/07/04 06:32:44;;;;;;;10.23;4.70;;;;;;;;;;5045087;28;20787;-54
2023/07/04 06:35:09;;;;;;;8.53;4.90;;;;;;;;;;5056333;28;20597;-54
2023/07/04 06:37:34;;;;;;;8.68;4.82;;;;;;;;;;5062245;28;20321;-54
2023/07/04 06:40:00;;;;;;;7.65;4.93;;;;;;;;;;5051333;28;20761;-54
2023/07/04 06:42:25;;;;;;;7.82;4.80;;;;;;;;;;5057034;28;20048;-54
2023/07/04 06:44:50;;;;;;;7.10;4.53;;;;;;;;;;5034992;28;20032;-54
2023/07/04 06:47:15;;;;;;;5.72;4.38;;;;;;;;;;5055445;28;20033;-54
2023/07/04 06:49:41;;;;;;;8.80;4.37;;;;;;;;;;5056823;28;20040;-54
2023/07/04 06:52:06;;;;;;;7.53;4.65;;;;;;;;;;5057749;28;20356;-54
2023/07/04 06:54:31;;;;;;;6.45;4.55;;;;;;;;;;5063941;28;20055;-54
2023/07/04 06:56:57;;;;;;;6.50;4.27;;;;;;;;;;5062336;28;20071;-54
2023/07/04 06:59:22;;;;;;;6.97;4.53;;;;;;;;;;5041162;28;21913;-54
2023/07/04 07:01:47;;;;;;;5.90;4.37;;;;;;;;;;5059103;28;20285;-54
2023/07/04 07:04:13;;;;;;;7.37;4.50;;;;;;;;;;5063041;28;20412;-54
2023/07/04 07:06:39;;;;;;;6.90;4.90;;;;;;;;;;5063791;28;20062;-55
2023/07/04 07:09:08;;;;;;;6.82;4.65;;;;;;;;;;5064328;28;20150;-55
2023/07/04 07:11:33;;;;;;;7.40;5.10;;;;;;;;;;5034171;28;20175;-54
2023/07/04 07:13:58;;;;;;;8.97;5.10;;;;;;;;;;5060432;28;20533;-55
2023/07/04 07:16:23;;;;;;;9.33;5.20;;;;;;;;;;5059947;28;20528;-54
2023/07/04 07:18:49;;;;;;;10.35;5.05;;;;;;;;;;5044996;28;20286;-54
2023/07/04 07:21:18;;;;;;;9.32;5.25;;;;;;;;;;5043539;28;20063;-54
2023/07/04 07:23:43;;;;;;;8.13;5.20;;;;;;;;;;5057588;28;20029;-57
2023/07/04 07:26:11;;;;;;;9.07;5.40;;;;;;;;;;5059795;28;20097;-54
2023/07/04 07:28:38;;;;;;;8.75;5.40;;;;;;;;;;5059097;28;20041;-54
2023/07/04 07:31:05;;;;;;;8.13;5.00;;;;;;;;;;5037211;28;20412;-54
2023/07/04 07:33:30;;;;;;;9.23;5.47;;;;;;;;;;5064152;28;21098;-54
2023/07/04 07:35:56;;;;;;;7.38;5.47;;;;;;;;;;5051579;28;20041;-54
2023/07/04 07:38:21;;;;;;;9.37;5.47;;;;;;;;;;5044356;28;20029;-54
2023/07/04 07:40:50;;;;;;;9.17;5.20;;;;;;;;;;5059624;28;20352;-54
2023/07/04 07:43:15;;;;;;;8.95;5.10;;;;;;;;;;5042166;28;20405;-54
2023/07/04 07:45:40;;;;;;;8.55;5.55;;;;;;;;;;5056540;28;20056;-54
2023/07/04 07:48:06;;;;;;;6.90;4.70;;;;;;;;;;5046285;28;20044;-54
2023/07/04 07:50:31;;;;;;;8.68;4.85;;;;;;;;;;5061689;28;20032;-54
2023/07/04 07:52:56;;;;;;;7.43;4.80;;;;;;;;;;5057519;28;20289;-53
2023/07/04 07:55:21;;;;;;;6.87;4.53;;;;;;;;;;5051515;28;20550;-55
2023/07/04 07:57:47;;;;;;;8.67;5.10;;;;;;;;;;5051977;28;21771;-54
2023/07/04 08:00:12;;;;;;;9.53;5.27;;;;;;;;;;5052435;28;20825;-54
2023/07/04 08:02:37;;;;;;;7.78;4.93;;;;;;;;;;5034544;28;20318;-54
2023/07/04 08:05:03;;;;;;;6.80;4.40;;;;;;;;;;5052016;28;20049;-54
2023/07/04 08:07:28;;;;;;;11.05;5.00;;;;;;;;;;5051772;28;20381;-53
2023/07/04 08:09:53;;;;;;;6.70;4.27;;;;;;;;;;5035464;28;20043;-54
2023/07/04 08:12:19;;;;;;;5.40;4.03;;;;;;;;;;5033294;28;20838;-54
2023/07/04 08:14:44;;;;;;;7.73;4.63;;;;;;;;;;5034707;28;20084;-54
2023/07/04 08:17:09;;;;;;;8.15;4.20;;;;;;;;;;5052364;28;20290;-54
2023/07/04 08:19:35;;;;;;;7.70;4.07;;;;;;;;;;5050380;28;20066;-54
2023/07/04 08:22:00;;;;;;;7.25;4.00;;;;;;;;;;5033048;28;20037;-53
2023/07/04 08:24:25;;;;;;;6.87;4.13;;;;;;;;;;5040448;28;20052;-54
2023/07/04 08:26:51;;;;;;;8.23;4.20;;;;;;;;;;5051907;28;20668;-55
2023/07/04 08:29:17;;;;;;;7.13;4.28;;;;;;;;;;5051006;28;20830;-55
2023/07/04 08:31:42;;;;;;;7.33;4.30;;;;;;;;;;5040803;28;20060;-56
2023/07/04 08:34:09;;;;;;;10.57;4.30;;;;;;;;;;5034734;28;20717;-55
2023/07/04 08:36:34;;;;;;;6.63;3.85;;;;;;;;;;5050867;28;20048;-55
2023/07/04 08:38:59;;;;;;;6.78;4.22;;;;;;;;;;5049660;28;20067;-56
2023/07/04 08:41:25;;;;;;;7.00;4.37;;;;;;;;;;5034562;28;20041;-54
2023/07/04 08:43:50;;;;;;;4.90;3.90;;;;;;;;;;5052724;28;20036;-54
2023/07/04 08:46:15;;;;;;;8.73;4.27;;;;;;;;;;5035848;28;20086;-54
2023/07/04 08:48:40;;;;;;;5.63;3.88;;;;;;;;;;5051263;28;20283;-53
2023/07/04 08:51:06;;;;;;;6.67;3.90;;;;;;;;;;5024325;28;20515;-53
2023/07/04 08:53:31;;;;;;;5.73;3.80;;;;;;;;;;5039361;28;20293;-54
2023/07/04 08:55:56;;;;;;;6.95;4.20;;;;;;;;;;5050797;28;20291;-53
2023/07/04 08:58:23;;;;;;;7.70;4.40;;;;;;;;;;5035435;28;20079;-53
2023/07/04 09:00:48;;;;;;;5.50;4.35;;;;;;;;;;5040167;28;20432;-54
2023/07/04 09:03:13;;;;;;;7.10;4.80;;;;;;;;;;5051414;28;20041;-55
2023/07/04 09:05:42;;;;;;;6.57;4.40;;;;;;;;;;5032436;28;20344;-54
2023/07/04 09:08:12;;;;;;;6.30;3.88;;;;;;;;;;5050248;28;20326;-54
2023/07/04 09:10:39;;;;;;;5.70;3.97;;;;;;;;;;5049746;28;20044;-54
2023/07/04 09:13:05;;;;;;;5.65;3.90;;;;;;;;;;5047088;28;20497;-54
2023/07/04 09:15:31;;;;;;;5.47;3.90;;;;;;;;;;5048606;28;20101;-54
2023/07/04 09:17:57;;;;;;;6.90;4.25;;;;;;;;;;5066667;28;20040;-54
2023/07/04 09:20:23;;;;;;;7.07;4.50;;;;;;;;;;5066712;28;20036;-54
2023/07/04 09:22:48;;;;;;;6.55;4.57;;;;;;;;;;5058099;28;20029;-54
2023/07/04 09:25:13;;;;;;;8.63;4.30;;;;;;;;;;5059807;28;20044;-54
2023/07/04 09:27:39;;;;;;;6.63;4.43;;;;;;;;;;5072340;28;20055;-53
2023/07/04 09:30:05;;;;;;;6.87;4.20;;;;;;;;;;5072827;28;20036;-53
2023/07/04 09:32:30;;;;;;;6.70;4.32;;;;;;;;;;5036122;28;20318;-53
2023/07/04 09:34:59;;;;;;;7.03;4.30;;;;;;;;;;5061947;28;20520;-54
2023/07/04 09:37:25;;;;;;;6.68;4.40;;;;;;;;;;5066350;28;20157;-54
2023/07/04 09:39:51;;;;;;;5.82;4.30;;;;;;;;;;5066606;28;20037;-54
2023/07/04 09:42:17;;;;;;;6.95;4.00;;;;;;;;;;5066023;28;20059;-54
2023/07/04 09:44:42;;;;;;;6.32;4.60;;;;;;;;;;5048349;28;20076;-54
2023/07/04 09:47:08;;;;;;;6.13;4.68;;;;;;;;;;5066067;28;20044;-55
2023/07/04 09:49:35;;;;;;;6.38;4.40;;;;;;;;;;5048180;28;20081;-54
2023/07/04 09:52:09;;;;;;;7.45;4.90;;;;;;;;;;5059388;28;20041;-54
2023/07/04 09:54:35;;;;;;;5.90;4.30;;;;;;;;;;5050685;28;20075;-54
2023/07/04 09:57:20;;;;;;;5.50;4.38;;;;;;;;;;5066044;28;20060;-53
2023/07/04 09:59:45;;;;;;;6.85;4.55;;;;;;;;;;5065257;28;20044;-54
2023/07/04 10:02:12;;;;;;;6.70;4.50;;;;;;;;;;5062308;28;20040;-54
2023/07/04 10:04:38;;;;;;;7.05;4.78;;;;;;;;;;5030655;28;20274;-54
2023/07/04 10:07:10;;;;;;;8.75;4.50;;;;;;;;;;5063581;28;20016;-54
2023/07/04 10:09:35;;;;;;;5.95;4.78;;;;;;;;;;5065116;28;20037;-55
2023/07/04 10:12:11;;;;;;;6.60;4.70;;;;;;;;;;5047004;28;20090;-54
2023/07/04 10:14:36;;;;;;;7.35;4.90;;;;;;;;;;5061778;28;20041;-54
2023/07/04 10:17:09;;;;;;;7.07;5.28;;;;;;;;;;5044966;28;20044;-55
2023/07/04 10:19:39;;;;;;;7.05;5.10;;;;;;;;;;5045685;28;20025;-53
2023/07/04 10:22:04;;;;;;;7.38;4.60;;;;;;;;;;5059959;28;20127;-53
2023/07/04 10:24:33;;;;;;;6.20;4.90;;;;;;;;;;5063406;28;20155;-54
2023/07/04 10:26:59;;;;;;;6.37;4.90;;;;;;;;;;5030467;28;20036;-53
2023/07/04 10:29:44;;;;;;;6.85;5.30;;;;;;;;;;5054210;28;20056;-53
2023/07/04 10:32:13;;;;;;;8.00;4.80;;;;;;;;;;5042320;28;20066;-53
2023/07/04 10:34:38;;;;;;;12.23;6.25;;;;;;;;;;5050902;28;20525;-54
2023/07/04 10:37:03;;;;;;;10.77;6.07;;;;;;;;;;5051283;28;20080;-54
2023/07/04 10:39:30;;;;;;;9.73;5.65;;;;;;;;;;5040011;28;20282;-54
2023/07/04 10:41:58;;;;;;;8.60;5.45;;;;;;;;;;5051225;28;20036;-53
2023/07/04 10:44:23;;;;;;;9.38;5.22;;;;;;;;;;5050578;28;20056;-54
2023/07/04 10:46:51;;;;;;;6.10;5.03;;;;;;;;;;5034069;28;20037;-54
2023/07/04 10:49:17;;;;;;;9.48;5.10;;;;;;;;;;5040792;28;20025;-55
2023/07/04 10:51:42;;;;;;;7.80;5.13;;;;;;;;;;5031835;28;20041;-55
2023/07/04 10:54:11;;;;;;;7.28;4.82;;;;;;;;;;5040562;28;20052;-55
2023/07/04 10:56:36;;;;;;;8.02;5.30;;;;;;;;;;5033572;28;20124;-54
2023/07/04 10:59:06;;;;;;;8.67;5.03;;;;;;;;;;5048806;28;20455;-55
2023/07/04 11:01:35;;;;;;;7.53;5.07;;;;;;;;;;5021658;28;20448;-54
2023/07/04 11:04:20;;;;;;;6.97;5.50;;;;;;;;;;5048416;28;20469;-54
2023/07/04 11:07:11;;;;;;;6.47;4.95;;;;;;;;;;5048761;28;20041;-55
2023/07/04 11:09:39;;;;;;;9.20;5.70;;;;;;;;;;5049984;28;20064;-53
2023/07/04 11:12:06;;;;;;;6.85;5.30;;;;;;;;;;5050263;28;20029;-54
2023/07/04 11:14:31;;;;;;;9.30;5.50;;;;;;;;;;5050433;28;20028;-55
2023/07/04 11:16:57;;;;;;;7.35;5.32;;;;;;;;;;5034334;28;20032;-53
2023/07/04 11:19:25;;;;;;;7.15;5.32;;;;;;;;;;5049989;28;20017;-53
2023/07/04 11:21:54;;;;;;;6.70;5.43;;;;;;;;;;5051507;28;20021;-54
2023/07/04 11:24:19;;;;;;;7.00;5.95;;;;;;;;;;5050294;28;20024;-54
2023/07/04 11:26:45;;;;;;;7.07;5.60;;;;;;;;;;5033488;28;20025;-54
2023/07/04 11:29:15;;;;;;;7.38;5.20;;;;;;;;;;5053349;28;20451;-54
2023/07/04 11:31:40;;;;;;;;;;;;;;;;;;5052235;28;20029;-54
2023/07/04 11:34:05;;;;;;;8.40;5.53;;;;;;;;;;5058237;28;20400;-53
2023/07/04 11:36:50;;;;;;;8.30;5.32;;;;;;;;;;5037754;28;20033;-54
2023/07/04 11:39:18;;;;;;;9.52;5.90;;;;;;;;;;5053201;28;20060;-54
2023/07/04 11:41:43;;;;;;;6.72;5.32;;;;;;;;;;5048578;28;20064;-56
2023/07/04 11:44:12;;;;;;;7.27;5.20;;;;;;;;;;5051141;28;20057;-54
2023/07/04 11:46:37;;;;;;;7.63;5.28;;;;;;;;;;5050295;28;20303;-54
2023/07/04 11:49:02;;;;;;;7.03;5.17;;;;;;;;;;5050807;28;20033;-55
2023/07/04 11:51:28;;;;;;;9.47;5.40;;;;;;;;;;5033306;28;20136;-55
2023/07/04 11:53:57;;;;;;;7.65;5.63;;;;;;;;;;5037443;28;20319;-54
2023/07/04 11:56:23;;;;;;;6.80;5.60;;;;;;;;;;5050171;28;20029;-62
2023/07/04 11:58:49;;;;;;;9.68;5.47;;;;;;;;;;5050334;28;20407;-55
2023/07/04 12:01:14;;;;;;;12.82;5.55;;;;;;;;;;5023318;28;20468;-54
2023/07/04 12:03:55;;;;;;;7.97;5.60;;;;;;;;;;5050331;28;20051;-55
2023/07/04 12:06:39;;;;;;;10.15;5.53;;;;;;;;;;5047939;28;20356;-54
2023/07/04 12:09:04;;;;;;;10.85;5.82;;;;;;;;;;5050027;28;20397;-54
2023/07/04 12:11:42;;;;;;;7.97;5.82;;;;;;;;;;5033459;28;20040;-55
2023/07/04 12:14:07;;;;;;;9.05;5.72;;;;;;;;;;5049759;28;20980;-55
2023/07/04 12:16:32;;;;;;;10.45;6.07;;;;;;;;;;5035171;28;20033;-55
2023/07/04 12:18:58;;;;;;;8.52;5.70;;;;;;;;;;5032201;28;20036;-54
2023/07/04 12:21:23;;;;;;;8.97;5.97;;;;;;;;;;5036710;28;20604;-56
2023/07/04 12:23:48;;;;;;;7.83;5.63;;;;;;;;;;5050372;28;20298;-55
2023/07/04 12:26:17;;;;;;;7.82;6.13;;;;;;;;;;5049860;28;20317;-54
2023/07/04 12:28:45;;;;;;;6.03;5.00;;;;;;;;;;5047604;28;20036;-54
2023/07/04 12:31:10;;;;;;;8.65;5.85;;;;;;;;;;5050546;28;20032;-54
2023/07/04 12:33:39;;;;;;;6.37;5.23;;;;;;;;;;5049900;28;20523;-54
2023/07/04 12:36:06;;;;;;;8.15;5.75;;;;;;;;;;5048946;28;20036;-54
2023/07/04 12:38:31;;;;;;;8.02;5.55;;;;;;;;;;5050356;28;20037;-54
2023/07/04 12:40:56;;;;;;;8.10;5.60;;;;;;;;;;5048510;28;20028;-54
2023/07/04 12:43:22;;;;;;;7.18;5.40;;;;;;;;;;5061514;28;20301;-54
2023/07/04 12:45:47;;;;;;;6.25;5.30;;;;;;;;;;5042328;28;20028;-54
2023/07/04 12:48:13;;;;;;;6.93;5.07;;;;;;;;;;5048261;28;20055;-55
2023/07/04 12:50:56;;;;;;;7.85;6.03;;;;;;;;;;5063807;28;20029;-54
2023/07/04 12:53:21;;;;;;;6.45;5.38;;;;;;;;;;5044897;28;20009;-53
2023/07/04 12:55:46;;;;;;;6.63;5.30;;;;;;;;;;5044473;28;20542;-53
2023/07/04 12:58:13;;;;;;;6.80;4.87;;;;;;;;;;5050590;28;20493;-53
2023/07/04 13:00:42;;;;;;;6.38;5.25;;;;;;;;;;5039495;28;20048;-54
2023/07/04 13:03:11;;;;;;;7.13;5.28;;;;;;;;;;5029448;28;20085;-54
2023/07/04 13:05:39;;;;;;;7.55;5.40;;;;;;;;;;5048374;28;20040;-54
2023/07/04 13:08:08;;;;;;;7.85;5.07;;;;;;;;;;5054024;28;20526;-54
2023/07/04 13:10:34;;;;;;;6.72;5.57;;;;;;;;;;5048808;28;20029;-54
2023/07/04 13:12:59;;;;;;;6.32;5.45;;;;;;;;;;5041406;28;20043;-54
2023/07/04 13:15:28;;;;;;;6.53;5.50;;;;;;;;;;5063118;28;20075;-56
2023/07/04 13:17:54;;;;;;;7.43;5.50;;;;;;;;;;5049176;28;20056;-54
2023/07/04 13:20:20;;;;;;;7.50;5.55;;;;;;;;;;5064525;28;20037;-54
2023/07/04 13:22:45;;;;;;;6.72;4.97;;;;;;;;;;5064185;28;20567;-54
2023/07/04 13:25:17;;;;;;;8.57;5.38;;;;;;;;;;5066720;28;20045;-57
2023/07/04 13:27:42;;;;;;;7.10;5.22;;;;;;;;;;5063635;28;20119;-54
2023/07/04 13:30:08;;;;;;;6.83;5.50;;;;;;;;;;5047656;28;20096;-54
2023/07/04 13:32:37;;;;;;;6.03;4.97;;;;;;;;;;5049455;28;20040;-55
2023/07/04 13:35:21;;;;;;;7.75;5.63;;;;;;;;;;5046397;28;20111;-55
2023/07/04 13:37:46;;;;;;;5.95;5.07;;;;;;;;;;5064474;28;20120;-55
2023/07/04 13:40:11;;;;;;;7.28;5.30;;;;;;;;;;5066318;28;20518;-55
2023/07/04 13:42:36;;;;;;;7.20;5.30;;;;;;;;;;5063103;28;20045;-55
2023/07/04 13:45:02;;;;;;;7.83;5.70;;;;;;;;;;5066566;28;20036;-55
2023/07/04 13:47:27;;;;;;;6.33;5.40;;;;;;;;;;5059418;28;20534;-57
2023/07/04 13:49:52;;;;;;;7.03;5.93;;;;;;;;;;5048837;28;20282;-55
2023/07/04 13:52:19;;;;;;;7.00;5.37;;;;;;;;;;5047913;28;20041;-55
2023/07/04 13:54:44;;;;;;;7.60;5.40;;;;;;;;;;5047123;28;20436;-55
2023/07/04 13:57:09;;;;;;;6.45;5.35;;;;;;;;;;5065575;28;20029;-56
2023/07/04 13:59:35;;;;;;;7.17;5.30;;;;;;;;;;5047307;28;20043;-55
2023/07/04 14:02:00;;;;;;;6.80;5.63;;;;;;;;;;5058274;28;20044;-55
2023/07/04 14:04:25;;;;;;;8.10;5.45;;;;;;;;;;5052342;28;20769;-55
2023/07/04 14:06:51;;;;;;;6.82;5.15;;;;;;;;;;5057878;28;20037;-56
2023/07/04 14:09:17;;;;;;;6.15;5.38;;;;;;;;;;5066644;28;20085;-56
2023/07/04 14:11:42;;;;;;;7.63;4.95;;;;;;;;;;5062501;28;20041;-55
2023/07/04 14:14:08;;;;;;;6.37;5.23;;;;;;;;;;5065331;28;20045;-55
2023/07/04 14:16:33;;;;;;;7.68;5.78;;;;;;;;;;5060735;28;20280;-55
2023/07/04 14:18:59;;;;;;;7.55;5.30;;;;;;;;;;5062704;28;20039;-55
2023/07/04 14:21:24;;;;;;;7.60;5.00;;;;;;;;;;5060938;28;20304;-56
2023/07/04 14:23:49;;;;;;;8.03;5.10;;;;;;;;;;5061912;28;20039;-55
2023/07/04 14:26:20;;;;;;;7.53;4.97;;;;;;;;;;5064274;28;20440;-55
2023/07/04 14:28:45;;;;;;;7.05;5.22;;;;;;;;;;5059263;28;20052;-56
2023/07/04 14:31:11;;;;;;;7.47;4.77;;;;;;;;;;5045973;28;20036;-55
2023/07/04 14:33:36;;;;;;;6.55;5.30;;;;;;;;;;5063512;28;20370;-55
2023/07/04 14:36:05;;;;;;;6.60;5.40;;;;;;;;;;5061255;28;20565;-55
2023/07/04 14:38:30;;;;;;;5.75;4.78;;;;;;;;;;5044423;28;20095;-54